createdAt,value
2017-04-20T00:00:19.143Z,928.04
2017-04-20T00:00:37.900Z,928.06
2017-04-20T00:00:57.155Z,928.05
2017-04-20T00:01:15.899Z,928.09
2017-04-20T00:01:35.190Z,928.05
2017-04-20T00:01:54.435Z,928.07
2017-04-20T00:02:13.175Z,928.05
2017-04-20T00:02:31.869Z,928.06
2017-04-20T00:02:51.123Z,928.04
2017-04-20T00:03:10.497Z,928.06
2017-04-20T00:03:29.852Z,928.02
2017-04-20T00:03:49.115Z,928.03
2017-04-20T00:04:08.411Z,928.08
2017-04-20T00:04:27.699Z,928.02
2017-04-20T00:04:46.944Z,928.06
2017-04-20T00:05:06.236Z,928.08
2017-04-20T00:05:25.495Z,928.02
2017-04-20T00:05:44.756Z,928.09
2017-04-20T00:06:03.494Z,928.05
2017-04-20T00:06:22.772Z,928.01
2017-04-20T00:06:41.504Z,928.04
2017-04-20T00:07:00.233Z,928.05
2017-04-20T00:07:18.984Z,928.02
2017-04-20T00:07:37.736Z,928.06
2017-04-20T00:07:56.991Z,928.07
2017-04-20T00:08:16.258Z,928.1
2017-04-20T00:08:35.498Z,928.07
2017-04-20T00:08:54.780Z,928.05
2017-04-20T00:09:14.157Z,928.09
2017-04-20T00:09:32.921Z,928.08
2017-04-20T00:09:52.159Z,928.04
2017-04-20T00:10:11.454Z,928.08
2017-04-20T00:10:30.739Z,928.02
2017-04-20T00:10:48.990Z,928.04
2017-04-20T00:11:08.283Z,928.04
2017-04-20T00:11:27.538Z,928.07
2017-04-20T00:11:46.781Z,928.08
2017-04-20T00:12:06.087Z,928.04
2017-04-20T00:12:25.379Z,928.03
2017-04-20T00:12:44.654Z,928.06
2017-04-20T00:13:03.946Z,928.07
2017-04-20T00:13:23.238Z,928.06
2017-04-20T00:13:42.516Z,928.1
2017-04-20T00:14:01.771Z,928.07
2017-04-20T00:14:21.024Z,928.07
2017-04-20T00:14:39.817Z,928.07
2017-04-20T00:14:59.096Z,928.08
2017-04-20T00:15:18.349Z,928.05
2017-04-20T00:15:37.582Z,928.06
2017-04-20T00:15:56.864Z,928.07
2017-04-20T00:16:16.092Z,928.05
2017-04-20T00:16:35.396Z,928.08
2017-04-20T00:16:54.708Z,928.02
2017-04-20T00:17:13.959Z,928.05
2017-04-20T00:17:33.230Z,928.07
2017-04-20T00:17:51.978Z,928.05
2017-04-20T00:18:11.436Z,928.06
2017-04-20T00:18:30.740Z,928.06
2017-04-20T00:18:50.006Z,928.06
2017-04-20T00:19:08.734Z,928.05
2017-04-20T00:19:28.051Z,928.02
2017-04-20T00:19:47.310Z,928.02
2017-04-20T00:20:06.579Z,928.06
2017-04-20T00:20:25.858Z,928.03
2017-04-20T00:20:45.089Z,928.1
2017-04-20T00:21:03.801Z,928.03
2017-04-20T00:21:23.140Z,928.06
2017-04-20T00:21:41.888Z,928.08
2017-04-20T00:22:01.134Z,928.07
2017-04-20T00:22:19.899Z,928.16
2017-04-20T00:22:38.858Z,928.12
2017-04-20T00:22:58.134Z,928.11
2017-04-20T00:23:17.399Z,928.12
2017-04-20T00:23:36.631Z,928.09
2017-04-20T00:23:55.902Z,928.12
2017-04-20T00:24:15.178Z,928.1
2017-04-20T00:24:33.942Z,928.1
2017-04-20T00:24:53.226Z,928.13
2017-04-20T00:25:12.480Z,928.11
2017-04-20T00:25:31.239Z,928.12
2017-04-20T00:25:50.001Z,928.12
2017-04-20T00:26:09.297Z,928.12
2017-04-20T00:26:27.533Z,928.15
2017-04-20T00:26:46.804Z,928.1
2017-04-20T00:27:06.087Z,928.12
2017-04-20T00:27:25.375Z,928.13
2017-04-20T00:27:44.594Z,928.13
2017-04-20T00:28:03.901Z,928.13
2017-04-20T00:28:22.680Z,928.15
2017-04-20T00:28:41.961Z,928.15
2017-04-20T00:29:01.214Z,928.15
2017-04-20T00:29:20.505Z,928.16
2017-04-20T00:29:39.776Z,928.14
2017-04-20T00:29:58.506Z,928.16
2017-04-20T00:30:17.770Z,928.16
2017-04-20T00:30:36.572Z,928.19
2017-04-20T00:30:55.335Z,928.19
2017-04-20T00:31:14.580Z,928.17
2017-04-20T00:31:33.872Z,928.15
2017-04-20T00:31:53.116Z,928.15
2017-04-20T00:32:11.869Z,928.17
2017-04-20T00:32:31.177Z,928.16
2017-04-20T00:32:49.923Z,928.17
2017-04-20T00:33:09.236Z,928.2
2017-04-20T00:33:28.458Z,928.16
2017-04-20T00:33:47.928Z,928.15
2017-04-20T00:34:07.186Z,928.22
2017-04-20T00:34:26.471Z,928.2
2017-04-20T00:34:45.812Z,928.17
2017-04-20T00:35:05.223Z,928.2
2017-04-20T00:35:24.511Z,928.21
2017-04-20T00:35:43.807Z,928.2
2017-04-20T00:36:03.102Z,928.2
2017-04-20T00:36:22.375Z,928.23
2017-04-20T00:36:41.636Z,928.21
2017-04-20T00:37:00.930Z,928.21
2017-04-20T00:37:20.219Z,928.23
2017-04-20T00:37:39.536Z,928.24
2017-04-20T00:37:58.816Z,928.2
2017-04-20T00:38:18.045Z,928.23
2017-04-20T00:38:37.290Z,928.21
2017-04-20T00:38:56.546Z,928.21
2017-04-20T00:39:15.802Z,928.22
2017-04-20T00:39:35.077Z,928.21
2017-04-20T00:39:53.874Z,928.2
2017-04-20T00:40:13.122Z,928.17
2017-04-20T00:40:32.371Z,928.15
2017-04-20T00:40:51.686Z,928.16
2017-04-20T00:41:10.974Z,928.19
2017-04-20T00:41:30.245Z,928.18
2017-04-20T00:41:48.988Z,928.21
2017-04-20T00:42:07.230Z,928.18
2017-04-20T00:42:26.496Z,928.15
2017-04-20T00:42:45.894Z,928.16
2017-04-20T00:43:05.145Z,928.18
2017-04-20T00:43:24.380Z,928.18
2017-04-20T00:43:43.169Z,928.17
2017-04-20T00:44:01.919Z,928.17
2017-04-20T00:44:21.201Z,928.16
2017-04-20T00:44:39.921Z,928.15
2017-04-20T00:44:58.708Z,928.17
2017-04-20T00:45:17.951Z,928.16
2017-04-20T00:45:36.706Z,928.15
2017-04-20T00:45:55.988Z,928.13
2017-04-20T00:46:15.248Z,928.16
2017-04-20T00:46:33.986Z,928.15
2017-04-20T00:46:53.212Z,928.15
2017-04-20T00:47:12.480Z,928.12
2017-04-20T00:47:31.753Z,928.14
2017-04-20T00:47:50.978Z,928.16
2017-04-20T00:48:10.241Z,928.13
2017-04-20T00:48:29.596Z,928.13
2017-04-20T00:48:48.831Z,928.1
2017-04-20T00:49:08.148Z,928.15
2017-04-20T00:49:27.407Z,928.16
2017-04-20T00:49:46.689Z,928.14
2017-04-20T00:50:06.025Z,928.15
2017-04-20T00:50:24.787Z,928.14
2017-04-20T00:50:44.118Z,928.16
2017-04-20T00:51:03.397Z,928.17
2017-04-20T00:51:22.681Z,928.12
2017-04-20T00:51:41.418Z,928.16
2017-04-20T00:52:00.172Z,928.14
2017-04-20T00:52:19.466Z,928.14
2017-04-20T00:52:38.233Z,928.13
2017-04-20T00:52:57.111Z,928.13
2017-04-20T00:53:15.874Z,928.13
2017-04-20T00:53:35.143Z,928.13
2017-04-20T00:53:54.422Z,928.14
2017-04-20T00:54:13.705Z,928.1
2017-04-20T00:54:32.998Z,928.12
2017-04-20T00:54:51.787Z,928.15
2017-04-20T00:55:11.082Z,928.15
2017-04-20T00:55:30.344Z,928.09
2017-04-20T00:55:49.626Z,928.13
2017-04-20T00:56:08.383Z,928.1
2017-04-20T00:56:27.840Z,928.12
2017-04-20T00:56:47.127Z,928.13
2017-04-20T00:57:06.398Z,928.1
2017-04-20T00:57:25.704Z,928.08
2017-04-20T00:57:44.459Z,928.09
2017-04-20T00:58:03.213Z,928.12
2017-04-20T00:58:22.574Z,928.12
2017-04-20T00:58:41.346Z,928.1
2017-04-20T00:59:00.103Z,928.1
2017-04-20T00:59:19.366Z,928.08
2017-04-20T00:59:38.612Z,928.09
2017-04-20T00:59:57.874Z,928.09
2017-04-20T01:00:17.147Z,928.08
2017-04-20T01:00:36.401Z,928.1
2017-04-20T01:00:55.137Z,928.12
2017-04-20T01:01:14.419Z,928.12
2017-04-20T01:01:33.659Z,928.13
2017-04-20T01:01:52.918Z,928.14
2017-04-20T01:02:11.681Z,928.13
2017-04-20T01:02:30.900Z,928.16
2017-04-20T01:02:49.605Z,928.17
2017-04-20T01:03:08.851Z,928.18
2017-04-20T01:03:28.122Z,928.17
2017-04-20T01:03:46.890Z,928.14
2017-04-20T01:04:06.181Z,928.15
2017-04-20T01:04:25.454Z,928.17
2017-04-20T01:04:44.743Z,928.21
2017-04-20T01:05:03.017Z,928.21
2017-04-20T01:05:22.319Z,928.19
2017-04-20T01:05:41.611Z,928.16
2017-04-20T01:06:00.882Z,928.19
2017-04-20T01:06:20.233Z,928.17
2017-04-20T01:06:39.525Z,928.22
2017-04-20T01:06:57.767Z,928.19
2017-04-20T01:07:17.031Z,928.21
2017-04-20T01:07:36.282Z,928.21
2017-04-20T01:07:54.498Z,928.21
2017-04-20T01:08:13.748Z,928.2
2017-04-20T01:08:33.021Z,928.21
2017-04-20T01:08:51.862Z,928.25
2017-04-20T01:09:10.577Z,928.23
2017-04-20T01:09:29.853Z,928.24
2017-04-20T01:09:49.104Z,928.24
2017-04-20T01:10:08.333Z,928.24
2017-04-20T01:10:27.602Z,928.19
2017-04-20T01:10:46.877Z,928.25
2017-04-20T01:11:06.137Z,928.23
2017-04-20T01:11:25.421Z,928.22
2017-04-20T01:11:43.667Z,928.22
2017-04-20T01:12:02.949Z,928.24
2017-04-20T01:12:22.211Z,928.23
2017-04-20T01:12:41.517Z,928.22
2017-04-20T01:13:00.855Z,928.24
2017-04-20T01:13:19.708Z,928.24
2017-04-20T01:13:38.972Z,928.24
2017-04-20T01:13:57.726Z,928.24
2017-04-20T01:14:17.017Z,928.21
2017-04-20T01:14:35.262Z,928.2
2017-04-20T01:14:54.552Z,928.23
2017-04-20T01:15:13.838Z,928.19
2017-04-20T01:15:33.181Z,928.17
2017-04-20T01:15:52.469Z,928.2
2017-04-20T01:16:11.713Z,928.21
2017-04-20T01:16:31.143Z,928.21
2017-04-20T01:16:49.948Z,928.25
2017-04-20T01:17:09.239Z,928.19
2017-04-20T01:17:28.027Z,928.24
2017-04-20T01:17:47.280Z,928.21
2017-04-20T01:18:06.023Z,928.19
2017-04-20T01:18:24.830Z,928.22
2017-04-20T01:18:44.181Z,928.22
2017-04-20T01:19:02.924Z,928.2
2017-04-20T01:19:22.195Z,928.19
2017-04-20T01:19:41.519Z,928.22
2017-04-20T01:20:01.051Z,928.2
2017-04-20T01:20:19.905Z,928.25
2017-04-20T01:20:38.618Z,928.19
2017-04-20T01:20:57.370Z,928.21
2017-04-20T01:21:16.184Z,928.18
2017-04-20T01:21:35.436Z,928.17
2017-04-20T01:21:54.666Z,928.18
2017-04-20T01:22:13.596Z,928.19
2017-04-20T01:22:32.844Z,928.22
2017-04-20T01:22:52.147Z,928.2
2017-04-20T01:23:11.449Z,928.18
2017-04-20T01:23:30.848Z,928.18
2017-04-20T01:23:50.137Z,928.15
2017-04-20T01:24:09.430Z,928.17
2017-04-20T01:24:28.872Z,928.14
2017-04-20T01:24:48.142Z,928.17
2017-04-20T01:25:06.930Z,928.18
2017-04-20T01:25:25.705Z,928.19
2017-04-20T01:25:44.479Z,928.16
2017-04-20T01:26:03.866Z,928.2
2017-04-20T01:26:23.142Z,928.19
2017-04-20T01:26:42.075Z,928.21
2017-04-20T01:27:00.835Z,928.17
2017-04-20T01:27:20.104Z,928.19
2017-04-20T01:27:39.105Z,928.16
2017-04-20T01:27:57.845Z,928.2
2017-04-20T01:28:16.575Z,928.2
2017-04-20T01:28:35.881Z,928.2
2017-04-20T01:28:54.111Z,928.2
2017-04-20T01:29:12.834Z,928.24
2017-04-20T01:29:32.088Z,928.24
2017-04-20T01:29:51.383Z,928.25
2017-04-20T01:30:10.755Z,928.23
2017-04-20T01:30:30.033Z,928.22
2017-04-20T01:30:49.249Z,928.24
2017-04-20T01:31:08.551Z,928.27
2017-04-20T01:31:27.786Z,928.26
2017-04-20T01:31:47.069Z,928.29
2017-04-20T01:32:06.334Z,928.27
2017-04-20T01:32:25.593Z,928.27
2017-04-20T01:32:44.375Z,928.27
2017-04-20T01:33:03.856Z,928.27
2017-04-20T01:33:23.128Z,928.27
2017-04-20T01:33:41.335Z,928.28
2017-04-20T01:34:00.078Z,928.27
2017-04-20T01:34:18.803Z,928.28
2017-04-20T01:34:38.050Z,928.23
2017-04-20T01:34:57.311Z,928.23
2017-04-20T01:35:16.042Z,928.22
2017-04-20T01:35:34.771Z,928.21
2017-04-20T01:35:53.586Z,928.25
2017-04-20T01:36:12.890Z,928.2
2017-04-20T01:36:31.719Z,928.21
2017-04-20T01:36:50.158Z,928.2
2017-04-20T01:37:09.468Z,928.16
2017-04-20T01:37:28.736Z,928.23
2017-04-20T01:47:23.845Z,928.26
2017-04-20T01:47:43.910Z,928.28
2017-04-20T01:48:02.685Z,928.28
2017-04-20T01:48:21.963Z,928.32
2017-04-20T01:48:41.243Z,928.3
2017-04-20T01:49:00.504Z,928.31
2017-04-20T01:49:19.776Z,928.34
2017-04-20T01:49:39.066Z,928.32
2017-04-20T01:49:57.832Z,928.29
2017-04-20T01:50:16.609Z,928.27
2017-04-20T01:50:35.873Z,928.31
2017-04-20T01:50:55.160Z,928.29
2017-04-20T01:51:14.402Z,928.28
2017-04-20T01:51:33.759Z,928.29
2017-04-20T01:51:52.526Z,928.29
2017-04-20T01:52:12.108Z,928.29
2017-04-20T01:52:30.873Z,928.27
2017-04-20T01:52:50.133Z,928.25
2017-04-20T01:53:09.403Z,928.26
2017-04-20T01:53:28.675Z,928.31
2017-04-20T01:53:47.423Z,928.31
2017-04-20T01:54:06.704Z,928.25
2017-04-20T01:54:25.983Z,928.26
2017-04-20T01:54:44.715Z,928.28
2017-04-20T01:55:03.984Z,928.28
2017-04-20T01:55:23.245Z,928.31
2017-04-20T01:55:42.021Z,928.28
2017-04-20T01:56:00.765Z,928.31
2017-04-20T01:56:20.045Z,928.29
2017-04-20T01:56:39.316Z,928.29
2017-04-20T01:56:57.533Z,928.3
2017-04-20T01:57:16.793Z,928.3
2017-04-20T01:57:36.063Z,928.27
2017-04-20T01:57:54.781Z,928.28
2017-04-20T01:58:14.132Z,928.29
2017-04-20T01:58:32.875Z,928.27
2017-04-20T01:58:52.151Z,928.29
2017-04-20T01:59:11.393Z,928.28
2017-04-20T01:59:30.680Z,928.31
2017-04-20T01:59:49.427Z,928.26
2017-04-20T02:00:08.156Z,928.22
2017-04-20T02:00:27.417Z,928.29
2017-04-20T02:00:46.714Z,928.26
2017-04-20T02:01:05.998Z,928.22
2017-04-20T02:01:25.299Z,928.2
2017-04-20T02:01:44.585Z,928.3
2017-04-20T02:02:03.836Z,928.24
2017-04-20T02:02:23.419Z,928.27
2017-04-20T02:02:42.282Z,928.22
2017-04-20T02:03:01.560Z,928.21
2017-04-20T02:03:20.824Z,928.21
2017-04-20T02:03:39.571Z,928.15
2017-04-20T02:03:58.904Z,928.22
2017-04-20T02:04:18.139Z,928.23
2017-04-20T02:04:37.423Z,928.19
2017-04-20T02:04:56.725Z,928.22
2017-04-20T02:05:16.001Z,928.18
2017-04-20T02:05:35.300Z,928.21
2017-04-20T02:05:54.547Z,928.21
2017-04-20T02:06:13.807Z,928.21
2017-04-20T02:06:32.555Z,928.22
2017-04-20T02:06:50.798Z,928.24
2017-04-20T02:07:10.528Z,928.21
2017-04-20T02:07:29.774Z,928.23
2017-04-20T02:07:49.042Z,928.26
2017-04-20T02:08:08.302Z,928.3
2017-04-20T02:08:27.623Z,928.33
2017-04-20T02:08:46.914Z,928.25
2017-04-20T02:09:06.179Z,928.28
2017-04-20T02:09:25.684Z,928.28
2017-04-20T02:09:44.429Z,928.3
2017-04-20T02:10:03.193Z,928.26
2017-04-20T02:10:22.452Z,928.3
2017-04-20T02:10:41.737Z,928.29
2017-04-20T02:11:00.516Z,928.3
2017-04-20T02:11:19.783Z,928.31
2017-04-20T02:11:39.055Z,928.33
2017-04-20T02:11:57.311Z,928.33
2017-04-20T02:12:16.610Z,928.33
2017-04-20T02:12:34.889Z,928.31
2017-04-20T02:12:53.857Z,928.29
2017-04-20T02:13:13.137Z,928.31
2017-04-20T02:13:32.402Z,928.27
2017-04-20T02:13:51.713Z,928.28
2017-04-20T02:14:11.009Z,928.28
2017-04-20T02:14:30.287Z,928.27
2017-04-20T02:14:49.597Z,928.26
2017-04-20T02:15:08.861Z,928.27
2017-04-20T02:15:28.126Z,928.27
2017-04-20T02:15:47.393Z,928.26
2017-04-20T02:16:06.164Z,928.28
2017-04-20T02:16:25.456Z,928.26
2017-04-20T02:16:44.724Z,928.28
2017-04-20T02:17:04.008Z,928.21
2017-04-20T02:17:23.272Z,928.23
2017-04-20T02:17:42.543Z,928.3
2017-04-20T02:18:01.791Z,928.26
2017-04-20T02:18:21.062Z,928.28
2017-04-20T02:18:39.834Z,928.32
2017-04-20T02:18:59.094Z,928.33
2017-04-20T02:19:18.387Z,928.3
2017-04-20T02:19:37.669Z,928.3
2017-04-20T02:19:56.893Z,928.28
2017-04-20T02:20:16.167Z,928.29
2017-04-20T02:20:34.897Z,928.38
2017-04-20T02:20:54.155Z,928.35
2017-04-20T02:21:12.904Z,928.33
2017-04-20T02:21:32.205Z,928.29
2017-04-20T02:21:51.439Z,928.32
2017-04-20T02:22:10.862Z,928.31
2017-04-20T02:22:30.129Z,928.33
2017-04-20T02:22:48.878Z,928.32
2017-04-20T02:23:08.225Z,928.34
2017-04-20T02:23:27.453Z,928.28
2017-04-20T02:23:46.720Z,928.29
2017-04-20T02:24:05.997Z,928.31
2017-04-20T02:24:25.263Z,928.29
2017-04-20T02:24:44.577Z,928.33
2017-04-20T02:25:03.838Z,928.32
2017-04-20T02:25:23.109Z,928.31
2017-04-20T02:25:42.358Z,928.26
2017-04-20T02:26:01.103Z,928.27
2017-04-20T02:26:19.848Z,928.26
2017-04-20T02:26:39.116Z,928.28
2017-04-20T02:26:57.859Z,928.26
2017-04-20T02:27:16.639Z,928.26
2017-04-20T02:27:36.070Z,928.28
2017-04-20T02:27:54.838Z,928.29
2017-04-20T02:28:14.132Z,928.23
2017-04-20T02:28:33.373Z,928.2
2017-04-20T02:28:52.598Z,928.22
2017-04-20T02:29:11.862Z,928.19
2017-04-20T02:29:31.113Z,928.24
2017-04-20T02:29:50.057Z,928.24
2017-04-20T02:30:08.800Z,928.25
2017-04-20T02:30:28.052Z,928.27
2017-04-20T02:30:47.295Z,928.26
2017-04-20T02:31:06.546Z,928.27
2017-04-20T02:31:25.833Z,928.24
2017-04-20T02:31:45.059Z,928.26
2017-04-20T02:32:03.806Z,928.27
2017-04-20T02:32:22.057Z,928.28
2017-04-20T02:32:41.347Z,928.28
2017-04-20T02:33:00.118Z,928.31
2017-04-20T02:33:19.031Z,928.31
2017-04-20T02:33:38.289Z,928.31
2017-04-20T02:33:57.562Z,928.34
2017-04-20T02:34:16.560Z,928.31
2017-04-20T02:34:35.832Z,928.31
2017-04-20T02:34:55.087Z,928.23
2017-04-20T02:35:13.847Z,928.28
2017-04-20T02:35:33.089Z,928.32
2017-04-20T02:35:52.371Z,928.31
2017-04-20T02:36:11.660Z,928.28
2017-04-20T02:36:30.410Z,928.3
2017-04-20T02:36:49.655Z,928.31
2017-04-20T02:37:08.912Z,928.23
2017-04-20T02:37:28.154Z,928.22
2017-04-20T02:37:47.397Z,928.3
2017-04-20T02:38:06.614Z,928.18
2017-04-20T02:38:25.352Z,928.23
2017-04-20T02:38:44.617Z,928.23
2017-04-20T02:39:03.387Z,928.27
2017-04-20T02:39:22.673Z,928.31
2017-04-20T02:39:41.951Z,928.34
2017-04-20T02:40:00.692Z,928.28
2017-04-20T02:40:19.937Z,928.25
2017-04-20T02:40:39.194Z,928.24
2017-04-20T02:40:58.456Z,928.33
2017-04-20T02:41:17.809Z,928.35
2017-04-20T02:41:37.087Z,928.34
2017-04-20T02:41:55.823Z,928.37
2017-04-20T02:42:14.665Z,928.33
2017-04-20T02:42:33.948Z,928.3
2017-04-20T02:42:53.644Z,928.38
2017-04-20T02:43:12.949Z,928.34
2017-04-20T02:43:32.315Z,928.4
2017-04-20T02:43:51.147Z,928.32
2017-04-20T02:44:09.917Z,928.38
2017-04-20T02:44:28.744Z,928.33
2017-04-20T02:44:47.476Z,928.36
2017-04-20T02:45:06.748Z,928.35
2017-04-20T02:45:26.098Z,928.33
2017-04-20T02:45:45.449Z,928.3
2017-04-20T02:46:04.715Z,928.32
2017-04-20T02:46:23.999Z,928.37
2017-04-20T02:46:43.264Z,928.38
2017-04-20T02:47:02.070Z,928.28
2017-04-20T02:47:20.896Z,928.3
2017-04-20T02:47:40.188Z,928.4
2017-04-20T02:47:59.480Z,928.38
2017-04-20T02:48:18.748Z,928.34
2017-04-20T02:48:38.050Z,928.34
2017-04-20T02:48:57.319Z,928.31
2017-04-20T02:49:16.580Z,928.3
2017-04-20T02:49:35.869Z,928.28
2017-04-20T02:49:55.169Z,928.3
2017-04-20T02:50:14.436Z,928.28
2017-04-20T02:50:33.713Z,928.29
2017-04-20T02:50:52.982Z,928.25
2017-04-20T02:51:12.241Z,928.26
2017-04-20T02:51:31.486Z,928.25
2017-04-20T02:51:50.772Z,928.29
2017-04-20T02:52:10.412Z,928.22
2017-04-20T02:52:29.666Z,928.27
2017-04-20T02:52:48.921Z,928.26
2017-04-20T02:53:08.213Z,928.24
2017-04-20T02:53:26.963Z,928.25
2017-04-20T02:53:46.237Z,928.19
2017-04-20T02:54:05.520Z,928.23
2017-04-20T02:54:23.778Z,928.2
2017-04-20T02:54:43.073Z,928.2
2017-04-20T02:55:02.369Z,928.19
2017-04-20T02:55:21.636Z,928.2
2017-04-20T02:55:39.901Z,928.22
2017-04-20T02:55:58.624Z,928.23
2017-04-20T02:56:17.874Z,928.2
2017-04-20T02:56:37.135Z,928.17
2017-04-20T02:56:56.371Z,928.18
2017-04-20T02:57:15.617Z,928.22
2017-04-20T02:57:34.894Z,928.22
2017-04-20T02:57:54.192Z,928.21
2017-04-20T02:58:12.964Z,928.21
2017-04-20T02:58:32.216Z,928.24
2017-04-20T02:58:51.475Z,928.23
2017-04-20T02:59:10.763Z,928.22
2017-04-20T02:59:30.060Z,928.24
2017-04-20T02:59:48.808Z,928.24
2017-04-20T03:00:07.525Z,928.24
2017-04-20T03:00:26.787Z,928.24
2017-04-20T03:00:46.077Z,928.22
2017-04-20T03:01:04.848Z,928.24
2017-04-20T03:01:24.101Z,928.24
2017-04-20T03:01:42.837Z,928.31
2017-04-20T03:02:01.598Z,928.26
2017-04-20T03:02:20.887Z,928.25
2017-04-20T03:02:40.195Z,928.26
2017-04-20T03:02:59.486Z,928.25
2017-04-20T03:03:18.771Z,928.26
2017-04-20T03:03:38.272Z,928.2
2017-04-20T03:03:57.543Z,928.25
2017-04-20T03:04:16.856Z,928.26
2017-04-20T03:04:36.110Z,928.27
2017-04-20T03:04:55.394Z,928.28
2017-04-20T03:05:14.693Z,928.28
2017-04-20T03:05:33.975Z,928.3
2017-04-20T03:05:53.222Z,928.29
2017-04-20T03:06:12.513Z,928.28
2017-04-20T03:06:31.797Z,928.33
2017-04-20T03:06:51.066Z,928.3
2017-04-20T03:07:09.932Z,928.34
2017-04-20T03:07:29.189Z,928.29
2017-04-20T03:07:48.440Z,928.3
2017-04-20T03:08:07.724Z,928.31
2017-04-20T03:08:27.022Z,928.28
2017-04-20T03:08:46.340Z,928.33
2017-04-20T03:09:05.599Z,928.32
2017-04-20T03:09:24.854Z,928.3
2017-04-20T03:09:44.139Z,928.32
2017-04-20T03:10:03.390Z,928.31
2017-04-20T03:10:22.166Z,928.3
2017-04-20T03:10:41.000Z,928.32
2017-04-20T03:10:59.762Z,928.31
2017-04-20T03:11:19.005Z,928.32
2017-04-20T03:11:37.753Z,928.33
2017-04-20T03:11:57.008Z,928.32
2017-04-20T03:12:16.291Z,928.33
2017-04-20T03:12:35.553Z,928.34
2017-04-20T03:12:54.829Z,928.31
2017-04-20T03:13:14.105Z,928.33
2017-04-20T03:13:32.851Z,928.33
2017-04-20T03:13:52.123Z,928.34
2017-04-20T03:14:10.859Z,928.38
2017-04-20T03:14:30.141Z,928.32
2017-04-20T03:14:49.401Z,928.35
2017-04-20T03:15:08.660Z,928.34
2017-04-20T03:15:27.923Z,928.34
2017-04-20T03:15:47.202Z,928.33
2017-04-20T03:16:05.945Z,928.31
2017-04-20T03:16:24.726Z,928.32
2017-04-20T03:16:42.962Z,928.31
2017-04-20T03:17:02.228Z,928.3
2017-04-20T03:17:21.619Z,928.35
2017-04-20T03:17:40.835Z,928.3
2017-04-20T03:18:00.104Z,928.33
2017-04-20T03:18:19.377Z,928.32
2017-04-20T03:18:38.609Z,928.26
2017-04-20T03:18:57.838Z,928.28
2017-04-20T03:19:17.126Z,928.28
2017-04-20T03:19:36.405Z,928.27
2017-04-20T03:19:55.685Z,928.28
2017-04-20T03:20:14.959Z,928.28
2017-04-20T03:20:34.223Z,928.3
2017-04-20T03:20:53.461Z,928.25
2017-04-20T03:21:12.235Z,928.28
2017-04-20T03:21:31.541Z,928.25
2017-04-20T03:21:50.790Z,928.27
2017-04-20T03:22:09.740Z,928.28
2017-04-20T03:22:28.497Z,928.28
2017-04-20T03:22:47.751Z,928.3
2017-04-20T03:23:07.019Z,928.29
2017-04-20T03:23:26.281Z,928.3
2017-04-20T03:23:45.542Z,928.3
2017-04-20T03:24:04.819Z,928.33
2017-04-20T03:24:24.108Z,928.3
2017-04-20T03:24:43.370Z,928.24
2017-04-20T03:25:02.626Z,928.28
2017-04-20T03:25:21.922Z,928.29
2017-04-20T03:25:41.203Z,928.28
2017-04-20T03:26:00.499Z,928.28
2017-04-20T03:26:19.829Z,928.28
2017-04-20T03:26:39.130Z,928.31
2017-04-20T03:26:57.903Z,928.28
2017-04-20T03:27:17.387Z,928.27
2017-04-20T03:27:36.669Z,928.26
2017-04-20T03:27:54.910Z,928.28
2017-04-20T03:28:14.156Z,928.28
2017-04-20T03:28:32.934Z,928.25
2017-04-20T03:28:52.200Z,928.27
2017-04-20T03:29:10.954Z,928.26
2017-04-20T03:29:30.190Z,928.23
2017-04-20T03:29:49.119Z,928.21
2017-04-20T03:30:08.404Z,928.2
2017-04-20T03:30:27.700Z,928.21
2017-04-20T03:30:46.969Z,928.21
2017-04-20T03:31:06.240Z,928.25
2017-04-20T03:31:25.023Z,928.2
2017-04-20T03:31:44.279Z,928.19
2017-04-20T03:32:03.763Z,928.21
2017-04-20T03:32:23.133Z,928.16
2017-04-20T03:32:42.386Z,928.16
2017-04-20T03:33:01.634Z,928.14
2017-04-20T03:33:20.975Z,928.08
2017-04-20T03:33:39.750Z,928.13
2017-04-20T03:33:59.025Z,928.12
2017-04-20T03:34:18.505Z,928.1
2017-04-20T03:34:37.797Z,928.13
2017-04-20T03:34:56.547Z,928.09
2017-04-20T03:35:15.770Z,928.1
2017-04-20T03:35:35.111Z,928.04
2017-04-20T03:35:53.840Z,928.05
2017-04-20T03:36:13.103Z,928.01
2017-04-20T03:36:32.369Z,928.07
2017-04-20T03:36:51.642Z,928.06
2017-04-20T03:37:10.922Z,928.04
2017-04-20T03:37:30.194Z,928.05
2017-04-20T03:37:49.515Z,928.05
2017-04-20T03:38:08.291Z,928.03
2017-04-20T03:38:27.583Z,928.02
2017-04-20T03:38:46.829Z,928.06
2017-04-20T03:39:06.103Z,928
2017-04-20T03:39:25.406Z,927.97
2017-04-20T03:39:44.159Z,928.05
2017-04-20T03:40:02.709Z,928.02
2017-04-20T03:40:21.969Z,927.95
2017-04-20T03:40:41.257Z,927.96
2017-04-20T03:41:00.034Z,927.97
2017-04-20T03:41:19.320Z,927.94
2017-04-20T03:41:38.630Z,927.96
2017-04-20T03:41:57.389Z,927.97
2017-04-20T03:42:16.639Z,927.97
2017-04-20T03:42:35.895Z,927.95
2017-04-20T03:42:54.159Z,927.96
2017-04-20T03:43:13.468Z,927.97
2017-04-20T03:43:32.735Z,927.99
2017-04-20T03:43:52.013Z,928
2017-04-20T03:44:11.253Z,927.98
2017-04-20T03:44:30.562Z,928.01
2017-04-20T03:44:48.818Z,928.01
2017-04-20T03:45:07.590Z,927.98
2017-04-20T03:45:26.853Z,928.01
2017-04-20T03:45:46.063Z,927.99
2017-04-20T03:46:04.833Z,928
2017-04-20T03:46:23.570Z,928.03
2017-04-20T03:46:42.900Z,927.99
2017-04-20T03:47:01.641Z,927.97
2017-04-20T03:47:20.904Z,927.98
2017-04-20T03:47:40.204Z,928.05
2017-04-20T03:47:58.607Z,928
2017-04-20T03:48:17.885Z,928.05
2017-04-20T03:48:36.633Z,928.05
2017-04-20T03:48:55.539Z,928.06
2017-04-20T03:49:14.806Z,928.04
2017-04-20T03:49:34.075Z,928.05
2017-04-20T03:49:53.344Z,928.09
2017-04-20T03:50:12.788Z,928.02
2017-04-20T03:50:32.041Z,928.01
2017-04-20T03:50:51.312Z,928.03
2017-04-20T03:51:10.083Z,928
2017-04-20T03:51:29.377Z,928.02
2017-04-20T03:51:48.654Z,928
2017-04-20T03:52:08.011Z,927.96
2017-04-20T03:52:26.919Z,927.98
2017-04-20T03:52:46.151Z,927.98
2017-04-20T03:53:05.411Z,927.97
2017-04-20T03:53:24.663Z,927.96
2017-04-20T03:53:43.942Z,927.94
2017-04-20T03:54:03.210Z,927.96
2017-04-20T03:54:21.952Z,927.98
2017-04-20T03:54:41.330Z,927.97
2017-04-20T03:55:00.089Z,927.96
2017-04-20T03:55:18.847Z,928
2017-04-20T03:55:38.111Z,927.96
2017-04-20T03:55:56.387Z,928
2017-04-20T03:56:15.632Z,927.92
2017-04-20T03:56:34.896Z,927.99
2017-04-20T03:56:54.171Z,928.02
2017-04-20T03:57:12.390Z,928
2017-04-20T03:57:31.600Z,928.02
2017-04-20T03:57:50.891Z,928.01
2017-04-20T03:58:09.726Z,928.05
2017-04-20T03:58:28.995Z,928.03
2017-04-20T03:58:47.743Z,928.02
2017-04-20T03:59:06.502Z,928.04
2017-04-20T03:59:25.771Z,928.04
2017-04-20T03:59:44.491Z,928.01
2017-04-20T04:00:03.749Z,928.01
2017-04-20T04:00:22.501Z,928.01
2017-04-20T04:00:41.730Z,928.03
2017-04-20T04:01:00.996Z,928.04
2017-04-20T04:01:20.321Z,928.01
2017-04-20T04:01:39.652Z,928
2017-04-20T04:01:57.907Z,927.99
2017-04-20T04:02:17.173Z,927.93
2017-04-20T04:02:36.220Z,927.95
2017-04-20T04:02:55.503Z,927.95
2017-04-20T04:03:14.739Z,927.97
2017-04-20T04:03:34.016Z,927.97
2017-04-20T04:03:53.361Z,927.95
2017-04-20T04:04:12.610Z,927.95
2017-04-20T04:04:31.871Z,927.96
2017-04-20T04:04:51.143Z,927.94
2017-04-20T04:05:10.405Z,927.92
2017-04-20T04:05:29.661Z,927.94
2017-04-20T04:05:48.969Z,927.94
2017-04-20T04:06:07.717Z,927.96
2017-04-20T04:06:26.963Z,928
2017-04-20T04:06:46.260Z,927.95
2017-04-20T04:07:05.518Z,927.98
2017-04-20T04:07:24.804Z,928.03
2017-04-20T04:07:44.053Z,928
2017-04-20T04:08:03.302Z,928.01
2017-04-20T04:08:22.877Z,928.01
2017-04-20T04:08:41.646Z,927.99
2017-04-20T04:09:00.892Z,928.01
2017-04-20T04:09:20.171Z,927.98
2017-04-20T04:09:38.921Z,928.02